createdAt,value
2023-02-22T00:02:24.526Z,14.40
2023-02-22T00:04:54.278Z,14.48
2023-02-22T00:07:24.012Z,13.70
2023-02-22T00:09:51.216Z,14.45
2023-02-22T00:12:18.514Z,15.50
2023-02-22T00:14:45.749Z,14.82
2023-02-22T00:17:13.530Z,13.70
2023-02-22T00:19:43.003Z,14.02
2023-02-22T00:22:12.611Z,14.60
2023-02-22T00:24:41.974Z,14.23
2023-02-22T00:27:11.705Z,13.45
2023-02-22T00:29:41.070Z,12.85
2023-02-22T00:32:10.805Z,13.50
2023-02-22T00:34:38.203Z,15.02
2023-02-22T00:37:07.898Z,14.73
2023-02-22T00:39:35.177Z,13.93
2023-02-22T00:42:02.655Z,13.25
2023-02-22T00:44:29.882Z,14.13
2023-02-22T00:46:57.122Z,13.88
2023-02-22T00:49:24.380Z,13.98
2023-02-22T00:51:56.103Z,14.05
2023-02-22T00:54:25.636Z,13.73
2023-02-22T00:56:58.224Z,12.13
2023-02-22T00:59:28.287Z,12.33
2023-02-22T01:01:55.559Z,12.93
2023-02-22T01:04:25.274Z,13.20
2023-02-22T01:06:55.660Z,13.15
2023-02-22T01:09:23.014Z,13.93
2023-02-22T01:11:56.855Z,13.60
2023-02-22T01:14:26.654Z,13.57
2023-02-22T01:16:55.319Z,13.90
2023-02-22T01:19:25.781Z,13.85
2023-02-22T01:21:54.576Z,13.60
2023-02-22T01:24:24.302Z,13.73
2023-02-22T01:26:52.531Z,13.18
2023-02-22T01:29:21.199Z,13.02
2023-02-22T01:31:54.559Z,13.20
2023-02-22T01:36:49.794Z,13.52
2023-02-22T01:39:17.937Z,12.77
2023-02-22T01:41:46.208Z,12.82
2023-02-22T01:44:37.809Z,13.45
2023-02-22T01:47:06.436Z,12.73
2023-02-22T01:49:46.516Z,12.38
2023-02-22T01:52:23.805Z,12.68
2023-02-22T01:54:58.268Z,12.15
2023-02-22T01:57:34.495Z,11.65
2023-02-22T02:00:11.520Z,11.60
2023-02-22T02:02:45.987Z,10.57
2023-02-22T02:05:13.872Z,11.07
2023-02-22T02:07:41.341Z,11.38
2023-02-22T02:10:17.029Z,11.60
2023-02-22T02:12:49.387Z,12.07
2023-02-22T02:15:19.458Z,11.32
2023-02-22T02:17:52.008Z,11.00
2023-02-22T02:20:49.971Z,11.53
2023-02-22T02:23:25.814Z,11.65
2023-02-22T02:26:30.474Z,10.38
2023-02-22T02:29:03.742Z,10.60
2023-02-22T02:31:52.058Z,9.93
2023-02-22T02:34:52.653Z,11.45
2023-02-22T02:37:33.232Z,10.75
2023-02-22T02:40:12.363Z,11.45
2023-02-22T02:42:51.346Z,12.65
2023-02-22T02:45:27.923Z,11.02
2023-02-22T02:48:01.430Z,9.88
2023-02-22T02:50:43.920Z,9.05
2023-02-22T02:53:13.527Z,9.90
2023-02-22T02:55:40.775Z,10.15
2023-02-22T02:58:08.668Z,9.18
2023-02-22T03:00:40.783Z,9.77
2023-02-22T03:03:23.889Z,10.02
2023-02-22T03:06:32.559Z,10.75
2023-02-22T03:09:47.734Z,10.07
2023-02-22T03:12:39.961Z,10.60
2023-02-22T03:15:36.344Z,10.20
2023-02-22T03:18:06.744Z,10.45
2023-02-22T03:20:46.748Z,10.43
2023-02-22T03:23:46.460Z,11.07
2023-02-22T03:26:23.930Z,11.52
2023-02-22T03:28:53.981Z,11.50
2023-02-22T03:31:31.891Z,10.77
2023-02-22T03:34:05.189Z,10.30
2023-02-22T03:36:42.619Z,10.30
2023-02-22T03:39:18.062Z,9.90
2023-02-22T03:41:53.559Z,10.57
2023-02-22T03:44:25.813Z,10.77
2023-02-22T03:46:56.833Z,10.77
2023-02-22T03:49:29.747Z,11.32
2023-02-22T03:51:57.224Z,11.18
2023-02-22T03:54:24.913Z,9.88
2023-02-22T03:57:00.698Z,9.80
2023-02-22T03:59:30.275Z,9.65
2023-02-22T04:01:58.132Z,10.35
2023-02-22T04:04:25.976Z,9.15
2023-02-22T04:06:56.019Z,9.32
2023-02-22T04:09:27.967Z,9.00
2023-02-22T04:11:55.280Z,9.48
2023-02-22T04:14:23.858Z,9.40
2023-02-22T04:16:51.210Z,8.63
2023-02-22T04:19:18.591Z,8.52
2023-02-22T04:21:45.790Z,9.30
2023-02-22T04:24:13.134Z,9.45
2023-02-22T04:26:40.645Z,9.05
2023-02-22T04:29:08.429Z,8.68
2023-02-22T04:31:35.801Z,9.13
2023-02-22T04:34:03.617Z,8.93
2023-02-22T04:36:33.786Z,9.02
2023-02-22T04:39:01.656Z,7.72
2023-02-22T04:41:28.899Z,8.25
2023-02-22T04:43:56.176Z,7.90
2023-02-22T04:46:25.996Z,8.70
2023-02-22T04:48:54.062Z,8.77
2023-02-22T04:51:21.331Z,8.27
2023-02-22T04:53:48.581Z,8.63
2023-02-22T04:56:20.514Z,8.35
2023-02-22T04:58:47.892Z,8.15
2023-02-22T05:01:16.689Z,8.63
2023-02-22T05:03:44.223Z,7.95
2023-02-22T05:06:13.949Z,7.72
2023-02-22T05:08:43.699Z,7.50
2023-02-22T05:11:13.275Z,8.10
2023-02-22T05:13:40.517Z,8.20
2023-02-22T05:16:12.312Z,7.82
2023-02-22T05:18:39.803Z,8.05
2023-02-22T05:21:07.065Z,7.53
2023-02-22T05:23:34.494Z,8.02
2023-02-22T05:26:06.546Z,7.75
2023-02-22T05:28:33.846Z,7.63
2023-02-22T05:31:03.659Z,8.10
2023-02-22T05:33:33.385Z,7.75
2023-02-22T05:36:00.624Z,7.82
2023-02-22T05:38:27.946Z,7.93
2023-02-22T05:40:55.318Z,7.72
2023-02-22T05:43:24.947Z,7.00
2023-02-22T05:45:52.186Z,7.53
2023-02-22T05:48:22.739Z,7.38
2023-02-22T05:50:52.517Z,7.22
2023-02-22T05:53:23.723Z,7.32
2023-02-22T05:55:51.858Z,7.25
2023-02-22T05:58:19.122Z,7.00
2023-02-22T06:00:46.368Z,6.45
2023-02-22T06:03:13.750Z,6.45
2023-02-22T06:05:45.490Z,6.20
2023-02-22T06:08:12.887Z,6.03
2023-02-22T06:10:40.138Z,6.65
2023-02-22T06:13:07.413Z,6.20
2023-02-22T06:15:34.703Z,6.53
2023-02-22T06:18:02.366Z,6.30
2023-02-22T06:20:33.392Z,6.03
2023-02-22T06:23:02.877Z,6.13
2023-02-22T06:25:31.894Z,6.43
2023-02-22T06:28:00.560Z,6.57
2023-02-22T06:30:28.838Z,6.32
2023-02-22T06:32:56.151Z,5.70
2023-02-22T06:35:25.862Z,5.95
2023-02-22T06:37:53.195Z,6.07
2023-02-22T06:40:22.906Z,5.70
2023-02-22T06:42:53.688Z,6.30
2023-02-22T06:45:23.563Z,6.28
2023-02-22T06:47:51.005Z,6.13
2023-02-22T06:50:26.271Z,7.35
2023-02-22T06:52:53.667Z,6.90
2023-02-22T06:55:25.863Z,5.35
2023-02-22T06:57:57.812Z,5.60
2023-02-22T07:00:29.147Z,5.95
2023-02-22T07:02:59.609Z,5.63
2023-02-22T07:05:30.521Z,5.63
2023-02-22T07:08:06.387Z,5.68
2023-02-22T07:10:35.058Z,6.57
2023-02-22T07:13:02.840Z,5.97
2023-02-22T07:15:31.512Z,6.22
2023-02-22T07:17:59.311Z,6.28
2023-02-22T07:20:30.612Z,6.18
2023-02-22T07:23:04.723Z,7.43
2023-02-22T07:25:34.265Z,6.97
2023-02-22T07:28:03.860Z,5.70
2023-02-22T07:30:35.011Z,4.97
2023-02-22T07:33:07.272Z,5.57
2023-02-22T07:35:43.331Z,5.35
2023-02-22T07:38:10.572Z,5.13
2023-02-22T07:40:44.873Z,5.28
2023-02-22T07:43:23.831Z,5.60
2023-02-22T07:45:55.219Z,6.15
2023-02-22T08:23:57.497Z,6.18
2023-02-22T08:26:25.592Z,6.28
2023-02-22T08:28:53.405Z,5.10
2023-02-22T08:31:21.284Z,5.38
2023-02-22T08:33:50.093Z,5.53
2023-02-22T08:36:18.747Z,5.55
2023-02-22T08:38:46.530Z,5.18
2023-02-22T08:41:15.067Z,5.68
2023-02-22T08:43:42.874Z,5.18
2023-02-22T08:46:10.606Z,5.97
2023-02-22T08:48:38.169Z,4.85
2023-02-22T08:51:05.950Z,4.80
2023-02-22T08:53:34.318Z,5.05
2023-02-22T08:56:01.920Z,5.47
2023-02-22T08:58:29.494Z,5.57
2023-02-22T09:00:57.365Z,5.22
2023-02-22T09:03:25.486Z,5.72
2023-02-22T09:05:53.212Z,5.20
2023-02-22T09:08:21.389Z,5.47
2023-02-22T09:10:50.626Z,5.57
2023-02-22T09:13:18.474Z,5.10
2023-02-22T09:15:46.529Z,5.60
2023-02-22T09:18:14.961Z,4.95
2023-02-22T09:20:42.812Z,5.22
2023-02-22T09:23:11.288Z,4.78
2023-02-22T09:25:41.159Z,4.68
2023-02-22T09:28:09.474Z,4.65
2023-02-22T09:30:37.796Z,5.00
2023-02-22T09:33:12.353Z,4.82
2023-02-22T09:35:46.636Z,4.93
2023-02-22T09:38:17.229Z,4.65
2023-02-22T09:40:54.541Z,4.72
2023-02-22T09:43:35.967Z,5.05
2023-02-22T09:46:26.629Z,6.22
2023-02-22T09:49:18.171Z,5.32
2023-02-22T09:52:00.462Z,5.50
2023-02-22T09:54:40.061Z,5.18
2023-02-22T09:57:16.657Z,5.97
2023-02-22T10:00:13.891Z,5.30
2023-02-22T10:03:26.266Z,5.22
2023-02-22T10:06:01.204Z,5.30
2023-02-22T10:08:33.452Z,5.47
2023-02-22T10:11:38.579Z,5.65
2023-02-22T10:14:38.767Z,5.80
2023-02-22T10:17:22.962Z,6.47
2023-02-22T10:20:13.670Z,6.07
2023-02-22T10:23:01.116Z,6.72
2023-02-22T10:25:35.212Z,6.47
2023-02-22T10:32:03.295Z,6.68
2023-02-22T10:34:43.746Z,6.15
2023-02-22T10:37:23.018Z,6.43
2023-02-22T10:39:53.796Z,6.45
2023-02-22T10:42:26.341Z,7.35
2023-02-22T10:44:54.051Z,8.00
2023-02-22T10:47:22.435Z,7.47
2023-02-22T10:50:09.619Z,9.25
2023-02-22T10:52:40.283Z,7.32
2023-02-22T10:55:34.998Z,6.43
2023-02-22T10:58:09.710Z,6.95
2023-02-22T11:00:40.663Z,7.25
2023-02-22T11:03:23.127Z,6.65
2023-02-22T11:05:51.066Z,6.22
2023-02-22T11:08:21.498Z,5.47
2023-02-22T11:10:54.392Z,6.28
2023-02-22T11:13:45.976Z,6.47
2023-02-22T11:16:27.413Z,6.22
2023-02-22T11:19:20.825Z,5.97
2023-02-22T11:21:51.757Z,6.63
2023-02-22T11:24:24.415Z,6.00
2023-02-22T11:26:58.330Z,6.30
2023-02-22T11:29:36.481Z,6.50
2023-02-22T11:32:21.610Z,6.85
2023-02-22T11:35:03.474Z,6.40
2023-02-22T11:37:37.519Z,6.13
2023-02-22T11:40:18.523Z,6.53
2023-02-22T11:43:16.279Z,6.30
2023-02-22T11:46:12.415Z,6.22
2023-02-22T11:48:45.411Z,6.65
2023-02-22T11:51:50.017Z,6.30
2023-02-22T11:54:49.593Z,6.40
2023-02-22T11:58:12.792Z,7.57
2023-02-22T12:01:07.393Z,7.07
2023-02-22T12:03:55.861Z,6.88
2023-02-22T12:07:01.276Z,6.85
2023-02-22T12:09:54.194Z,7.78
2023-02-22T12:12:51.730Z,7.07
2023-02-22T12:15:38.312Z,7.25
2023-02-22T12:18:31.498Z,7.32
2023-02-22T12:21:07.286Z,6.93
2023-02-22T12:23:40.850Z,7.70
2023-02-22T12:26:20.908Z,8.02
2023-02-22T12:28:59.555Z,7.45
2023-02-22T12:31:53.411Z,8.00
2023-02-22T12:34:50.176Z,7.85
2023-02-22T12:37:23.920Z,7.60
2023-02-22T12:40:09.085Z,7.13
2023-02-22T12:43:00.033Z,8.00
2023-02-22T12:45:30.532Z,7.45
2023-02-22T12:48:25.778Z,8.38
2023-02-22T12:51:04.478Z,9.00
2023-02-22T12:53:37.550Z,8.98
2023-02-22T12:56:26.163Z,10.23
2023-02-22T12:59:13.132Z,12.50
2023-02-22T13:01:50.841Z,12.88
2023-02-22T13:04:21.337Z,13.45
2023-02-22T13:07:04.303Z,13.23
2023-02-22T13:09:50.805Z,13.20
2023-02-22T13:13:04.312Z,13.63
2023-02-22T13:15:47.379Z,13.07
2023-02-22T13:18:49.900Z,14.77
2023-02-22T13:21:39.207Z,13.45
2023-02-22T13:24:31.105Z,13.23
2023-02-22T13:27:09.188Z,13.20
2023-02-22T13:29:42.190Z,13.43
2023-02-22T13:32:21.164Z,13.18
2023-02-22T13:35:23.447Z,12.45
2023-02-22T13:38:22.858Z,13.32
2023-02-22T13:41:24.434Z,12.43
2023-02-22T13:44:26.999Z,13.57
2023-02-22T13:47:27.956Z,11.77
2023-02-22T13:50:23.534Z,13.05
2023-02-22T13:52:54.744Z,12.85
2023-02-22T13:55:30.122Z,12.93
2023-02-22T13:58:04.664Z,13.30
2023-02-22T14:00:44.516Z,13.40
2023-02-22T14:03:15.056Z,12.52
2023-02-22T14:05:42.725Z,12.68
2023-02-22T14:08:38.143Z,11.95
2023-02-22T14:11:15.600Z,14.05
2023-02-22T14:14:01.119Z,14.57
2023-02-22T14:16:30.435Z,14.50
2023-02-22T14:19:13.535Z,16.10
2023-02-22T14:22:02.622Z,16.48
2023-02-22T14:24:44.502Z,15.48
2023-02-22T14:27:13.780Z,15.95
2023-02-22T14:29:54.657Z,15.30
2023-02-22T14:32:32.131Z,15.63
2023-02-22T14:35:14.327Z,14.45
2023-02-22T14:37:59.191Z,15.70
2023-02-22T14:40:32.867Z,15.25
2023-02-22T14:43:21.361Z,16.10
2023-02-22T14:45:57.300Z,15.98
2023-02-22T14:48:43.026Z,16.27
2023-02-22T14:51:21.868Z,15.20
2023-02-22T14:54:01.274Z,15.35
2023-02-22T14:56:41.309Z,16.35
2023-02-22T14:59:19.317Z,16.27
2023-02-22T15:02:01.523Z,15.85
2023-02-22T15:04:35.420Z,15.50
2023-02-22T15:07:22.204Z,16.48
2023-02-22T15:09:50.189Z,16.20
2023-02-22T15:12:30.117Z,17.35
2023-02-22T15:15:32.838Z,16.60
2023-02-22T15:18:00.488Z,16.20
2023-02-22T15:20:29.469Z,16.50
2023-02-22T15:23:00.668Z,15.90
2023-02-22T15:25:31.418Z,16.02
2023-02-22T15:28:04.440Z,16.15
2023-02-22T15:30:34.351Z,17.77
2023-02-22T15:33:24.449Z,15.23
2023-02-22T15:35:56.627Z,18.00
2023-02-22T15:38:31.250Z,16.65
2023-02-22T15:41:08.496Z,17.20
2023-02-22T15:43:36.006Z,17.20
2023-02-22T15:46:11.953Z,18.42
2023-02-22T15:48:41.380Z,17.00
2023-02-22T15:51:15.477Z,18.00
2023-02-22T15:53:49.442Z,18.35
2023-02-22T15:56:25.912Z,19.08
2023-02-22T15:59:01.164Z,20.17
2023-02-22T16:01:28.846Z,19.33
2023-02-22T16:03:59.901Z,19.90
2023-02-22T16:06:35.433Z,19.58
2023-02-22T16:09:26.205Z,19.27
2023-02-22T16:12:22.788Z,19.33
2023-02-22T16:14:52.620Z,19.40
2023-02-22T16:17:36.244Z,18.35
2023-02-22T16:20:13.391Z,19.60
2023-02-22T16:22:46.724Z,18.92
2023-02-22T16:25:22.277Z,19.35
2023-02-22T16:27:56.071Z,18.77
2023-02-22T16:30:35.828Z,19.73
2023-02-22T16:33:13.709Z,18.92
2023-02-22T16:35:51.771Z,19.08
2023-02-22T16:38:21.309Z,20.05
2023-02-22T16:40:55.366Z,19.13
2023-02-22T16:43:32.988Z,19.33
2023-02-22T16:46:02.206Z,18.70
2023-02-22T16:48:32.898Z,18.80
2023-02-22T16:51:24.772Z,18.60
2023-02-22T16:53:54.796Z,18.58
2023-02-22T16:56:30.913Z,18.27
2023-02-22T16:59:03.258Z,18.95
2023-02-22T17:01:30.776Z,19.20
2023-02-22T17:03:58.468Z,18.55
2023-02-22T17:06:26.481Z,17.95
2023-02-22T17:08:54.519Z,17.85
2023-02-22T17:11:22.571Z,17.52
2023-02-22T17:13:51.769Z,17.40
2023-02-22T17:16:19.685Z,17.00
2023-02-22T17:18:50.042Z,15.60
2023-02-22T17:21:17.651Z,16.55
2023-02-22T17:23:46.187Z,16.05
2023-02-22T17:26:15.078Z,16.73
2023-02-22T17:28:44.258Z,15.90
2023-02-22T17:31:20.796Z,15.57
2023-02-22T17:33:48.622Z,17.38
2023-02-22T17:36:16.549Z,16.33
2023-02-22T17:38:45.020Z,16.10
2023-02-22T17:41:13.221Z,17.23
2023-02-22T17:43:41.246Z,17.00
2023-02-22T17:46:09.505Z,16.33
2023-02-22T17:48:38.461Z,16.52
2023-02-22T17:51:11.707Z,17.80
2023-02-22T17:53:39.409Z,15.68
2023-02-22T17:56:13.520Z,16.50
2023-02-22T17:58:42.109Z,16.73
2023-02-22T18:01:29.935Z,16.08
2023-02-22T18:04:00.243Z,16.38
2023-02-22T18:06:30.388Z,15.23
2023-02-22T18:08:59.882Z,16.23
2023-02-22T18:11:32.765Z,16.63
2023-02-22T18:14:05.878Z,16.80
2023-02-22T18:16:34.029Z,17.50
2023-02-22T18:19:03.407Z,17.58
2023-02-22T18:21:31.750Z,18.98
2023-02-22T18:24:00.141Z,17.17
2023-02-22T18:26:28.743Z,19.30
2023-02-22T18:28:57.266Z,18.42
2023-02-22T18:31:25.409Z,17.80
2023-02-22T18:33:53.607Z,16.90
2023-02-22T18:36:23.426Z,17.90
2023-02-22T18:38:55.312Z,17.60
2023-02-22T18:41:28.725Z,16.60
2023-02-22T18:44:00.628Z,17.63
2023-02-22T18:46:30.292Z,18.08
2023-02-22T18:48:59.474Z,18.35
2023-02-22T18:51:29.786Z,17.25
2023-02-22T18:54:01.748Z,17.75
2023-02-22T18:56:30.803Z,17.45
2023-02-22T18:59:01.083Z,17.60
2023-02-22T19:01:30.597Z,17.58
2023-02-22T19:03:59.638Z,17.38
2023-02-22T19:06:27.674Z,17.63
2023-02-22T19:08:55.841Z,17.83
2023-02-22T19:11:25.099Z,16.80
2023-02-22T19:13:57.187Z,17.38
2023-02-22T19:16:27.027Z,17.73
2023-02-22T19:18:59.062Z,17.00
2023-02-22T19:21:29.724Z,17.33
2023-02-22T19:23:57.989Z,17.25
2023-02-22T19:26:28.112Z,17.05
2023-02-22T19:28:57.742Z,18.77
2023-02-22T19:31:31.694Z,21.50
2023-02-22T19:34:11.803Z,19.70
2023-02-22T19:36:41.042Z,18.83
2023-02-22T19:39:09.272Z,22.95
2023-02-22T19:41:38.523Z,19.25
2023-02-22T19:44:06.830Z,18.30
2023-02-22T19:46:35.941Z,18.52
2023-02-22T19:49:05.160Z,19.13
2023-02-22T19:51:34.201Z,19.00
2023-02-22T19:54:05.652Z,19.13
2023-02-22T19:56:35.695Z,19.88
2023-02-22T19:59:09.796Z,19.55
2023-02-22T20:01:37.770Z,20.33
2023-02-22T20:04:18.262Z,18.50
2023-02-22T20:06:48.508Z,19.15
2023-02-22T20:09:19.936Z,19.00
2023-02-22T20:11:48.695Z,20.08
2023-02-22T20:14:19.601Z,18.98
2023-02-22T20:16:48.248Z,19.45
2023-02-22T20:19:17.986Z,26.90
2023-02-22T20:21:45.642Z,22.95
2023-02-22T20:24:18.539Z,21.00
2023-02-22T20:26:48.080Z,19.75
2023-02-22T20:29:16.861Z,20.40
2023-02-22T20:31:49.957Z,19.15
2023-02-22T20:34:18.194Z,19.38
2023-02-22T20:36:46.048Z,19.05
2023-02-22T20:39:14.599Z,19.42
2023-02-22T20:41:44.387Z,19.70
2023-02-22T20:44:19.200Z,19.05
2023-02-22T20:46:48.247Z,18.55
2023-02-22T20:49:19.246Z,18.63
2023-02-22T20:51:48.819Z,20.02
2023-02-22T20:54:18.552Z,19.63
2023-02-22T20:56:48.562Z,18.95
2023-02-22T20:59:18.731Z,19.98
2023-02-22T21:01:50.653Z,22.13
2023-02-22T21:04:19.271Z,21.58
2023-02-22T21:06:48.965Z,21.95
2023-02-22T21:09:19.431Z,21.88
2023-02-22T21:11:47.560Z,23.48
2023-02-22T21:14:20.280Z,20.60
2023-02-22T21:16:51.432Z,23.42
2023-02-22T21:19:30.894Z,21.52
2023-02-22T21:22:01.648Z,22.63
2023-02-22T21:24:30.225Z,22.05
2023-02-22T21:27:00.730Z,23.00
2023-02-22T21:29:29.637Z,21.00
2023-02-22T21:31:57.703Z,23.02
2023-02-22T21:34:26.292Z,22.38
2023-02-22T21:36:54.488Z,22.08
2023-02-22T21:39:22.860Z,21.77
2023-02-22T21:41:52.141Z,21.58
2023-02-22T21:44:20.540Z,20.98
2023-02-22T21:46:49.980Z,21.58
2023-02-22T21:49:19.044Z,20.35
2023-02-22T21:51:46.597Z,20.77
2023-02-22T21:54:14.189Z,21.30
2023-02-22T21:56:43.526Z,21.58
2023-02-22T21:59:19.111Z,20.63
2023-02-22T22:01:50.256Z,22.88
2023-02-22T22:04:20.444Z,19.92
2023-02-22T22:06:51.042Z,18.90
2023-02-22T22:09:19.353Z,19.67
2023-02-22T22:11:49.943Z,21.30
2023-02-22T22:14:19.087Z,19.35
2023-02-22T22:16:48.414Z,21.08
2023-02-22T22:19:16.391Z,19.98
2023-02-22T22:21:44.043Z,19.50
2023-02-22T22:24:11.611Z,20.83
2023-02-22T22:26:39.798Z,21.80
2023-02-22T22:29:10.560Z,21.27
2023-02-22T22:31:38.896Z,21.88
2023-02-22T22:34:07.269Z,22.88
2023-02-22T22:36:36.108Z,24.85
2023-02-22T22:39:13.225Z,24.55
2023-02-22T22:41:44.445Z,24.08
2023-02-22T22:44:15.576Z,24.98
2023-02-22T22:46:44.044Z,25.73
2023-02-22T22:49:13.759Z,25.67
2023-02-22T22:51:42.721Z,26.42
2023-02-22T22:54:10.930Z,26.13
2023-02-22T22:56:38.850Z,24.88
2023-02-22T22:59:08.050Z,23.70
2023-02-22T23:01:41.285Z,24.23
2023-02-22T23:04:12.096Z,23.70
2023-02-22T23:06:50.806Z,23.20
2023-02-22T23:09:25.734Z,22.88
2023-02-22T23:11:53.634Z,23.67
2023-02-22T23:14:32.148Z,23.70
2023-02-22T23:17:03.767Z,22.63
2023-02-22T23:19:33.825Z,23.65
2023-02-22T23:22:05.454Z,23.08
2023-02-22T23:24:37.414Z,23.05
2023-02-22T23:27:10.987Z,23.08
2023-02-22T23:29:40.670Z,22.60
2023-02-22T23:32:09.109Z,23.48
2023-02-22T23:34:38.805Z,24.90
2023-02-22T23:37:10.227Z,23.73
2023-02-22T23:39:38.730Z,22.65
2023-02-22T23:42:09.013Z,23.27
2023-02-22T23:44:36.638Z,23.13
2023-02-22T23:47:04.956Z,24.13
2023-02-22T23:49:38.945Z,24.38
2023-02-22T23:52:08.503Z,23.00
2023-02-22T23:54:40.528Z,22.92
2023-02-22T23:57:09.091Z,22.95
2023-02-22T23:59:40.654Z,24.15
